createdAt,value
2022-10-22T00:01:07.961Z,12.77
2022-10-22T00:03:35.621Z,11.98
2022-10-22T00:06:03.317Z,12.20
2022-10-22T00:08:31.245Z,13.68
2022-10-22T00:10:59.235Z,11.82
2022-10-22T00:13:26.787Z,11.52
2022-10-22T00:15:55.205Z,11.48
2022-10-22T00:18:23.151Z,11.15
2022-10-22T00:20:50.632Z,11.82
2022-10-22T00:23:18.188Z,13.15
2022-10-22T00:25:46.263Z,15.95
2022-10-22T00:28:14.976Z,12.52
2022-10-22T00:30:42.889Z,11.70
2022-10-22T00:33:10.772Z,11.43
2022-10-22T00:35:38.777Z,12.77
2022-10-22T00:38:06.213Z,12.32
2022-10-22T00:40:34.226Z,13.82
2022-10-22T00:43:01.932Z,13.38
2022-10-22T00:45:29.670Z,11.90
2022-10-22T00:48:01.170Z,13.63
2022-10-22T00:50:43.691Z,13.70
2022-10-22T00:53:15.851Z,13.77
2022-10-22T00:55:46.539Z,13.70
2022-10-22T00:58:15.168Z,12.50
2022-10-22T01:00:43.380Z,13.52
2022-10-22T01:03:11.284Z,12.75
2022-10-22T01:05:55.986Z,12.85
2022-10-22T01:08:48.088Z,12.75
2022-10-22T01:11:35.498Z,12.40
2022-10-22T01:14:18.274Z,12.32
2022-10-22T01:17:01.296Z,12.13
2022-10-22T01:19:46.151Z,11.83
2022-10-22T01:22:29.044Z,12.98
2022-10-22T01:24:57.171Z,12.07
2022-10-22T01:27:37.283Z,14.35
2022-10-22T01:30:11.291Z,14.48
2022-10-22T01:35:21.058Z,13.20
2022-10-22T01:37:54.160Z,14.35
2022-10-22T01:40:24.941Z,14.05
2022-10-22T01:43:07.394Z,13.20
2022-10-22T01:45:38.605Z,13.48
2022-10-22T01:48:27.559Z,14.38
2022-10-22T01:51:06.185Z,13.82
2022-10-22T01:53:58.136Z,14.27
2022-10-22T01:56:47.942Z,14.32
2022-10-22T01:59:21.530Z,15.15
2022-10-22T02:04:29.158Z,15.43
2022-10-22T02:07:00.400Z,13.55
2022-10-22T02:09:30.148Z,14.57
2022-10-22T02:11:59.718Z,15.00
2022-10-22T02:14:30.280Z,14.50
2022-10-22T02:17:00.140Z,14.75
2022-10-22T02:19:49.738Z,14.15
2022-10-22T02:22:18.260Z,14.23
2022-10-22T02:24:46.556Z,15.82
2022-10-22T02:27:25.820Z,15.82
2022-10-22T02:30:08.692Z,14.55
2022-10-22T02:32:42.635Z,15.50
2022-10-22T02:37:44.297Z,16.77
2022-10-22T02:40:12.383Z,16.67
2022-10-22T02:42:42.529Z,17.90
2022-10-22T02:45:10.594Z,16.30
2022-10-22T02:47:38.597Z,16.02
2022-10-22T02:50:09.617Z,16.17
2022-10-22T02:52:39.392Z,16.50
2022-10-22T02:55:08.315Z,15.38
2022-10-22T02:57:36.201Z,15.43
2022-10-22T03:00:09.451Z,16.40
2022-10-22T03:02:37.347Z,16.45
2022-10-22T03:05:05.774Z,14.95
2022-10-22T03:07:34.466Z,14.63
2022-10-22T03:10:02.289Z,15.25
2022-10-22T03:12:29.857Z,15.88
2022-10-22T03:14:58.506Z,15.32
2022-10-22T03:17:26.602Z,16.75
2022-10-22T03:19:54.087Z,16.13
2022-10-22T03:22:27.302Z,16.08
2022-10-22T03:25:00.721Z,15.38
2022-10-22T03:27:30.277Z,15.18
2022-10-22T03:29:58.847Z,15.52
2022-10-22T03:32:26.841Z,15.77
2022-10-22T03:34:55.054Z,16.00
2022-10-22T03:37:24.271Z,14.93
2022-10-22T03:39:53.045Z,16.65
2022-10-22T03:42:21.528Z,14.95
2022-10-22T03:44:49.223Z,15.02
2022-10-22T03:47:16.721Z,15.80
2022-10-22T03:49:44.734Z,16.45
2022-10-22T03:52:14.463Z,14.77
2022-10-22T03:54:42.589Z,15.75
2022-10-22T03:57:11.347Z,16.63
2022-10-22T03:59:44.652Z,15.85
2022-10-22T04:02:13.632Z,16.40
2022-10-22T04:04:41.666Z,16.05
2022-10-22T04:07:09.427Z,18.48
2022-10-22T04:09:37.261Z,16.17
2022-10-22T04:12:06.635Z,18.30
2022-10-22T04:14:34.355Z,17.23
2022-10-22T04:17:02.162Z,20.17
2022-10-22T04:19:29.920Z,20.02
2022-10-22T04:21:59.942Z,18.80
2022-10-22T04:24:27.985Z,19.52
2022-10-22T04:26:55.997Z,20.08
2022-10-22T04:29:24.305Z,19.88
2022-10-22T04:31:52.992Z,19.10
2022-10-22T04:34:21.283Z,19.80
2022-10-22T04:36:48.962Z,18.95
2022-10-22T04:39:16.442Z,20.00
2022-10-22T04:41:44.160Z,20.25
2022-10-22T04:44:15.942Z,20.13
2022-10-22T04:46:45.048Z,18.08
2022-10-22T04:49:13.102Z,17.13
2022-10-22T04:51:40.584Z,19.08
2022-10-22T04:54:08.592Z,18.35
2022-10-22T04:56:36.259Z,20.08
2022-10-22T04:59:06.846Z,18.83
2022-10-22T05:01:41.611Z,18.25
2022-10-22T05:04:13.679Z,19.02
2022-10-22T05:06:41.500Z,18.33
2022-10-22T05:09:13.567Z,19.92
2022-10-22T05:11:45.558Z,17.20
2022-10-22T05:14:13.328Z,17.00
2022-10-22T05:16:40.973Z,18.02
2022-10-22T05:19:09.680Z,17.92
2022-10-22T05:21:37.654Z,18.80
2022-10-22T05:24:05.650Z,18.40
2022-10-22T05:26:33.279Z,19.00
2022-10-22T05:29:01.249Z,18.60
2022-10-22T05:31:29.579Z,20.17
2022-10-22T05:33:57.496Z,19.08
2022-10-22T05:36:26.059Z,19.85
2022-10-22T05:38:54.336Z,19.48
2022-10-22T05:41:24.140Z,20.17
2022-10-22T05:43:54.167Z,20.77
2022-10-22T05:46:23.498Z,19.98
2022-10-22T05:48:59.518Z,19.02
2022-10-22T05:51:28.846Z,20.05
2022-10-22T05:54:01.828Z,18.02
2022-10-22T05:56:32.074Z,20.75
2022-10-22T05:59:00.302Z,19.40
2022-10-22T06:01:31.164Z,18.38
2022-10-22T06:04:02.411Z,19.83
2022-10-22T06:06:38.398Z,17.35
2022-10-22T06:09:39.572Z,15.77
2022-10-22T06:12:10.854Z,15.95
2022-10-22T06:14:38.799Z,17.90
2022-10-22T06:17:06.347Z,15.13
2022-10-22T06:19:34.320Z,16.58
2022-10-22T06:22:01.807Z,15.90
2022-10-22T06:24:30.454Z,17.10
2022-10-22T06:26:57.977Z,16.63
2022-10-22T06:29:25.485Z,15.98
2022-10-22T06:31:53.890Z,17.17
2022-10-22T06:34:21.926Z,16.98
2022-10-22T06:36:51.642Z,16.80
2022-10-22T06:39:19.393Z,16.88
2022-10-22T06:41:47.118Z,17.35
2022-10-22T06:44:19.816Z,16.20
2022-10-22T06:46:52.453Z,16.02
2022-10-22T06:49:20.954Z,15.88
2022-10-22T06:51:53.351Z,14.27
2022-10-22T06:54:22.321Z,13.73
2022-10-22T06:56:50.474Z,14.50
2022-10-22T06:59:18.933Z,15.18
2022-10-22T07:01:46.734Z,14.30
2022-10-22T07:04:15.013Z,15.43
2022-10-22T07:06:42.640Z,15.27
2022-10-22T07:09:10.163Z,14.07
2022-10-22T07:11:44.981Z,13.25
2022-10-22T07:14:13.728Z,12.13
2022-10-22T07:16:43.339Z,11.77
2022-10-22T07:19:10.924Z,11.50
2022-10-22T07:21:39.831Z,12.70
2022-10-22T07:24:07.623Z,11.95
2022-10-22T07:26:35.384Z,11.57
2022-10-22T07:29:04.860Z,12.52
2022-10-22T07:31:32.373Z,11.05
2022-10-22T07:34:00.258Z,11.70
2022-10-22T07:36:28.193Z,10.77
2022-10-22T07:38:57.841Z,11.07
2022-10-22T07:41:26.432Z,11.60
2022-10-22T07:43:54.296Z,11.13
2022-10-22T07:46:22.222Z,10.02
2022-10-22T07:48:49.851Z,11.48
2022-10-22T07:51:17.754Z,10.75
2022-10-22T07:53:45.556Z,11.55
2022-10-22T07:56:13.961Z,10.40
2022-10-22T07:58:41.902Z,10.88
2022-10-22T08:01:09.726Z,10.23
2022-10-22T08:03:37.245Z,10.52
2022-10-22T08:06:05.160Z,10.20
2022-10-22T08:08:34.766Z,10.18
2022-10-22T08:11:02.950Z,9.73
2022-10-22T08:13:30.978Z,8.90
2022-10-22T08:16:00.812Z,9.13
2022-10-22T08:18:29.239Z,9.63
2022-10-22T08:20:57.198Z,11.65
2022-10-22T08:23:27.691Z,7.97
2022-10-22T08:25:57.647Z,9.07
2022-10-22T08:28:26.071Z,9.18
2022-10-22T08:30:54.076Z,9.10
2022-10-22T08:33:21.752Z,8.77
2022-10-22T08:35:51.289Z,8.77
2022-10-22T08:38:19.686Z,9.80
2022-10-22T08:40:50.941Z,9.20
2022-10-22T08:43:24.423Z,7.38
2022-10-22T08:46:17.933Z,9.55
2022-10-22T08:48:52.624Z,7.70
2022-10-22T08:51:26.121Z,8.27
2022-10-22T08:56:31.523Z,8.60
2022-10-22T08:59:08.100Z,6.80
2022-10-22T09:01:40.162Z,7.75
2022-10-22T09:04:30.848Z,7.20
2022-10-22T09:07:00.851Z,7.32
2022-10-22T09:09:35.254Z,6.78
2022-10-22T09:12:07.236Z,7.47
2022-10-22T09:14:35.489Z,7.65
2022-10-22T09:17:20.849Z,8.30
2022-10-22T09:20:03.530Z,9.30
2022-10-22T09:22:40.306Z,10.20
2022-10-22T09:25:28.351Z,10.10
2022-10-22T09:27:58.504Z,8.93
2022-10-22T09:30:30.672Z,9.70
2022-10-22T09:33:02.751Z,9.07
2022-10-22T09:35:34.394Z,8.63
2022-10-22T09:38:08.541Z,7.93
2022-10-22T09:40:49.853Z,7.78
2022-10-22T09:43:18.305Z,8.30
2022-10-22T09:45:47.119Z,6.22
2022-10-22T09:48:15.029Z,6.43
2022-10-22T09:50:56.176Z,7.25
2022-10-22T09:53:30.357Z,7.32
2022-10-22T09:56:01.361Z,6.85
2022-10-22T09:58:29.148Z,6.40
2022-10-22T10:00:59.120Z,7.13
2022-10-22T10:03:31.864Z,6.40
2022-10-22T10:06:05.922Z,6.78
2022-10-22T10:08:34.917Z,7.28
2022-10-22T10:11:17.823Z,6.65
2022-10-22T10:14:04.730Z,6.00
2022-10-22T10:16:39.340Z,6.53
2022-10-22T10:19:13.221Z,7.53
2022-10-22T10:21:58.154Z,6.22
2022-10-22T10:24:54.123Z,7.05
2022-10-22T10:27:31.056Z,8.35
2022-10-22T10:30:21.403Z,7.20
2022-10-22T10:33:38.915Z,6.80
2022-10-22T10:36:57.015Z,7.38
2022-10-22T10:39:51.476Z,6.78
2022-10-22T10:42:35.249Z,6.40
2022-10-22T10:48:10.100Z,7.38
2022-10-22T10:50:53.601Z,7.30
2022-10-22T10:53:57.887Z,7.78
2022-10-22T10:56:39.423Z,7.05
2022-10-22T10:59:44.031Z,7.72
2022-10-22T11:02:33.382Z,7.28
2022-10-22T11:05:21.060Z,6.95
2022-10-22T11:07:58.565Z,7.28
2022-10-22T11:10:35.470Z,6.97
2022-10-22T11:13:29.649Z,7.78
2022-10-22T11:16:07.140Z,7.32
2022-10-22T11:18:53.134Z,7.30
2022-10-22T11:21:24.071Z,9.73
2022-10-22T11:24:02.775Z,7.03
2022-10-22T11:27:05.236Z,7.30
2022-10-22T11:29:43.033Z,7.70
2022-10-22T11:32:17.550Z,8.68
2022-10-22T11:34:49.759Z,8.98
2022-10-22T11:37:18.018Z,7.13
2022-10-22T11:39:51.182Z,6.43
2022-10-22T11:42:32.291Z,6.82
2022-10-22T11:45:01.523Z,7.28
2022-10-22T11:47:59.021Z,6.82
2022-10-22T11:50:47.622Z,6.93
2022-10-22T11:53:15.286Z,7.78
2022-10-22T11:55:49.042Z,7.65
2022-10-22T11:58:29.204Z,7.82
2022-10-22T12:01:17.732Z,7.97
2022-10-22T12:03:45.682Z,7.50
2022-10-22T12:06:13.380Z,7.25
2022-10-22T12:08:50.312Z,7.35
2022-10-22T12:11:26.137Z,7.20
2022-10-22T12:14:19.867Z,7.40
2022-10-22T12:16:58.396Z,7.68
2022-10-22T12:19:30.408Z,6.90
2022-10-22T12:22:03.600Z,8.02
2022-10-22T12:24:35.321Z,6.90
2022-10-22T12:27:03.189Z,6.55
2022-10-22T12:29:32.903Z,6.53
2022-10-22T12:32:05.189Z,4.45
2022-10-22T12:34:33.133Z,3.47
2022-10-22T12:37:04.963Z,4.05
2022-10-22T12:39:35.122Z,4.03
2022-10-22T12:42:05.529Z,3.72
2022-10-22T12:44:33.166Z,2.35
2022-10-22T12:47:01.096Z,2.00
2022-10-22T12:49:36.732Z,1.77
2022-10-22T12:52:10.852Z,1.38
2022-10-22T12:54:41.355Z,1.85
2022-10-22T12:57:15.102Z,1.20
2022-10-22T12:59:49.608Z,1.40
2022-10-22T13:02:22.895Z,1.17
2022-10-22T13:05:20.862Z,1.23
2022-10-22T13:08:13.497Z,1.73
2022-10-22T13:10:49.119Z,1.20
2022-10-22T13:13:45.668Z,1.63
2022-10-22T13:16:17.746Z,1.45
2022-10-22T13:18:46.500Z,1.88
2022-10-22T13:21:39.655Z,2.05
2022-10-22T13:24:22.962Z,1.37
2022-10-22T13:26:55.072Z,1.85
2022-10-22T13:29:25.022Z,1.50
2022-10-22T13:31:53.619Z,2.00
2022-10-22T13:34:24.786Z,1.55
2022-10-22T13:36:53.697Z,1.70
2022-10-22T13:39:23.771Z,2.13
2022-10-22T13:41:51.945Z,1.80
2022-10-22T13:44:20.008Z,2.00
2022-10-22T13:46:48.964Z,2.15
2022-10-22T13:49:20.081Z,2.20
2022-10-22T13:51:48.069Z,2.35
2022-10-22T13:54:22.595Z,2.45
2022-10-22T13:56:50.311Z,2.35
2022-10-22T13:59:21.197Z,2.90
2022-10-22T14:04:19.624Z,2.67
2022-10-22T14:06:47.179Z,2.45
2022-10-22T14:09:16.335Z,2.38
2022-10-22T14:11:44.464Z,2.50
2022-10-22T14:14:14.372Z,3.00
2022-10-22T14:16:42.115Z,2.50
2022-10-22T14:19:16.439Z,2.47
2022-10-22T14:21:44.174Z,2.45
2022-10-22T14:24:13.257Z,2.92
2022-10-22T14:26:41.569Z,2.88
2022-10-22T14:29:10.774Z,2.88
2022-10-22T14:31:42.258Z,2.55
2022-10-22T14:34:12.429Z,2.72
2022-10-22T14:36:39.931Z,2.53
2022-10-22T14:39:07.808Z,2.22
2022-10-22T14:41:36.625Z,2.33
2022-10-22T14:44:04.799Z,2.53
2022-10-22T14:46:32.360Z,2.58
2022-10-22T14:48:59.934Z,2.30
2022-10-22T14:51:27.471Z,2.15
2022-10-22T14:53:55.314Z,2.53
2022-10-22T14:56:23.001Z,2.83
2022-10-22T14:58:50.906Z,2.53
2022-10-22T15:01:18.864Z,2.88
2022-10-22T15:03:46.920Z,2.63
2022-10-22T15:06:15.057Z,2.45
2022-10-22T15:08:42.898Z,3.92
2022-10-22T15:11:12.426Z,3.72
2022-10-22T15:13:41.432Z,3.25
2022-10-22T15:16:10.913Z,2.67
2022-10-22T15:18:39.368Z,3.33
2022-10-22T15:21:15.790Z,3.25
2022-10-22T15:23:43.859Z,3.78
2022-10-22T15:26:13.382Z,4.20
2022-10-22T15:28:42.297Z,3.03
2022-10-22T15:31:13.399Z,2.88
2022-10-22T15:33:42.579Z,3.85
2022-10-22T15:36:15.662Z,2.88
2022-10-22T15:38:43.137Z,2.88
2022-10-22T15:41:13.463Z,2.88
2022-10-22T15:43:41.338Z,2.92
2022-10-22T15:46:13.231Z,3.63
2022-10-22T15:48:42.191Z,3.85
2022-10-22T15:51:18.479Z,4.28
2022-10-22T15:53:52.620Z,4.20
2022-10-22T15:56:20.795Z,4.50
2022-10-22T15:58:52.228Z,4.82
2022-10-22T16:01:20.080Z,4.53
2022-10-22T16:03:48.349Z,4.15
2022-10-22T16:06:16.017Z,4.18
2022-10-22T16:08:43.666Z,4.18
2022-10-22T16:11:13.154Z,3.33
2022-10-22T16:13:40.735Z,3.35
2022-10-22T16:16:09.013Z,2.40
2022-10-22T16:18:36.835Z,3.78
2022-10-22T16:21:04.529Z,3.83
2022-10-22T16:23:32.208Z,2.63
2022-10-22T16:26:02.045Z,2.67
2022-10-22T16:28:30.092Z,2.17
2022-10-22T16:31:02.575Z,3.05
2022-10-22T16:33:39.204Z,3.03
2022-10-22T16:36:17.891Z,3.15
2022-10-22T16:38:47.089Z,3.15
2022-10-22T16:41:19.639Z,1.88
2022-10-22T16:43:49.709Z,2.22
2022-10-22T16:46:19.856Z,2.13
2022-10-22T16:48:49.297Z,3.35
2022-10-22T16:51:19.610Z,2.70
2022-10-22T16:53:47.808Z,2.30
2022-10-22T16:56:16.764Z,3.13
2022-10-22T16:58:53.004Z,3.33
2022-10-22T17:01:22.928Z,3.35
2022-10-22T17:03:51.353Z,3.22
2022-10-22T17:06:18.926Z,3.50
2022-10-22T17:08:47.940Z,3.28
2022-10-22T17:11:19.030Z,3.25
2022-10-22T17:13:52.685Z,3.95
2022-10-22T17:16:23.465Z,3.55
2022-10-22T17:18:52.888Z,3.42
2022-10-22T17:21:21.848Z,3.97
2022-10-22T17:23:55.805Z,3.30
2022-10-22T17:26:26.485Z,2.90
2022-10-22T17:28:54.758Z,2.45
2022-10-22T17:31:25.494Z,3.38
2022-10-22T17:33:55.478Z,31.27
2022-10-22T17:36:25.004Z,5.80
2022-10-22T17:38:58.201Z,8.40
2022-10-22T17:41:34.952Z,5.50
2022-10-22T17:44:05.266Z,4.63
2022-10-22T17:46:33.132Z,5.03
2022-10-22T17:49:12.407Z,4.30
2022-10-22T17:51:40.551Z,4.75
2022-10-22T17:54:09.930Z,5.57
2022-10-22T17:56:40.381Z,4.75
2022-10-22T17:59:12.318Z,5.18
2022-10-22T18:01:45.242Z,4.95
2022-10-22T18:04:18.444Z,4.88
2022-10-22T18:06:47.985Z,4.63
2022-10-22T18:09:18.740Z,4.80
2022-10-22T18:11:48.473Z,5.18
2022-10-22T18:14:21.279Z,5.00
2022-10-22T18:16:49.327Z,5.30
2022-10-22T18:19:23.360Z,6.72
2022-10-22T18:21:51.446Z,6.13
2022-10-22T18:24:19.078Z,8.30
2022-10-22T18:26:46.742Z,11.45
2022-10-22T18:29:16.973Z,9.15
2022-10-22T18:31:45.507Z,7.75
2022-10-22T18:34:13.150Z,7.35
2022-10-22T18:36:41.804Z,6.43
2022-10-22T18:39:14.978Z,6.30
2022-10-22T18:41:43.369Z,6.43
2022-10-22T18:44:13.902Z,4.53
2022-10-22T18:46:41.759Z,4.53
2022-10-22T18:49:15.989Z,4.30
2022-10-22T18:51:44.405Z,3.40
2022-10-22T18:54:22.596Z,4.85
2022-10-22T18:56:52.416Z,3.70
2022-10-22T18:59:23.287Z,4.28
2022-10-22T19:01:57.643Z,4.93
2022-10-22T19:04:31.194Z,4.78
2022-10-22T19:06:59.222Z,4.97
2022-10-22T19:09:26.831Z,4.65
2022-10-22T19:11:54.952Z,4.93
2022-10-22T19:14:22.917Z,4.70
2022-10-22T19:16:50.561Z,4.60
2022-10-22T19:19:19.983Z,6.00
2022-10-22T19:21:49.075Z,6.00
2022-10-22T19:24:19.176Z,6.60
2022-10-22T19:26:47.435Z,6.15
2022-10-22T19:29:17.111Z,7.28
2022-10-22T19:31:45.909Z,6.75
2022-10-22T19:34:14.058Z,7.70
2022-10-22T19:36:42.431Z,6.95
2022-10-22T19:39:10.413Z,5.82
2022-10-22T19:41:38.007Z,6.78
2022-10-22T19:44:06.138Z,6.38
2022-10-22T19:46:33.814Z,6.25
2022-10-22T19:49:03.382Z,5.97
2022-10-22T19:51:33.453Z,5.40
2022-10-22T19:54:03.824Z,5.65
2022-10-22T19:56:33.593Z,5.28
2022-10-22T19:59:02.437Z,5.38
2022-10-22T20:01:31.859Z,5.70
2022-10-22T20:04:01.499Z,5.13
2022-10-22T20:06:30.046Z,5.13
2022-10-22T20:08:58.132Z,4.72
2022-10-22T20:11:29.894Z,5.20
2022-10-22T20:13:58.648Z,5.25
2022-10-22T20:16:29.893Z,5.00
2022-10-22T20:19:04.265Z,5.68
2022-10-22T20:21:33.304Z,5.45
2022-10-22T20:24:02.682Z,5.13
2022-10-22T20:26:31.728Z,5.20
2022-10-22T20:28:59.367Z,4.72
2022-10-22T20:31:29.358Z,5.18
2022-10-22T20:33:58.963Z,6.30
2022-10-22T20:36:28.749Z,7.15
2022-10-22T20:39:07.670Z,5.85
2022-10-22T20:41:40.784Z,6.68
2022-10-22T20:44:12.916Z,6.45
2022-10-22T20:46:41.099Z,6.78
2022-10-22T20:49:12.299Z,8.60
2022-10-22T20:51:40.894Z,6.88
2022-10-22T20:54:08.865Z,7.65
2022-10-22T20:56:39.336Z,8.73
2022-10-22T20:59:10.850Z,9.27
2022-10-22T21:01:40.195Z,8.77
2022-10-22T21:04:08.823Z,7.90
2022-10-22T21:06:40.422Z,9.32
2022-10-22T21:09:12.928Z,8.82
2022-10-22T21:11:42.405Z,8.70
2022-10-22T21:14:12.146Z,8.52
2022-10-22T21:16:44.496Z,7.28
2022-10-22T21:19:12.244Z,8.77
2022-10-22T21:21:40.631Z,8.68
2022-10-22T21:24:08.836Z,8.55
2022-10-22T21:26:41.164Z,6.82
2022-10-22T21:29:11.228Z,7.97
2022-10-22T21:31:40.508Z,7.85
2022-10-22T21:34:08.215Z,8.00
2022-10-22T21:36:36.302Z,6.93
2022-10-22T21:39:04.652Z,7.10
2022-10-22T21:41:33.229Z,8.00
2022-10-22T21:44:00.747Z,7.30
2022-10-22T21:46:29.606Z,8.13
2022-10-22T21:49:02.725Z,8.00
2022-10-22T21:51:32.682Z,8.23
2022-10-22T21:54:00.506Z,7.43
2022-10-22T21:56:35.971Z,7.03
2022-10-22T21:59:05.499Z,6.28
2022-10-22T22:01:34.046Z,6.57
2022-10-22T22:04:01.962Z,10.85
2022-10-22T22:06:33.537Z,6.03
2022-10-22T22:09:03.288Z,6.95
2022-10-22T22:11:31.403Z,6.40
2022-10-22T22:13:59.838Z,6.78
2022-10-22T22:16:32.787Z,6.28
2022-10-22T22:21:39.420Z,5.95
2022-10-22T22:24:08.348Z,6.03
2022-10-22T22:26:36.289Z,6.13
2022-10-22T22:29:03.766Z,7.97
2022-10-22T22:31:33.828Z,6.55
2022-10-22T22:34:04.565Z,6.75
2022-10-22T22:36:39.054Z,5.13
2022-10-22T22:39:11.143Z,5.72
2022-10-22T22:41:39.055Z,5.35
2022-10-22T22:44:07.231Z,5.80
2022-10-22T22:46:35.194Z,6.85
2022-10-22T22:49:03.395Z,5.28
2022-10-22T22:51:31.470Z,6.30
2022-10-22T22:54:00.816Z,6.30
2022-10-22T22:56:30.542Z,5.18
2022-10-22T22:58:58.877Z,6.03
2022-10-22T23:01:29.418Z,7.35
2022-10-22T23:04:03.158Z,5.85
2022-10-22T23:06:33.405Z,8.75
2022-10-22T23:09:01.118Z,8.02
2022-10-22T23:11:29.045Z,5.97
2022-10-22T23:13:59.655Z,6.03
2022-10-22T23:16:31.502Z,6.15
2022-10-22T23:19:01.197Z,8.32
2022-10-22T23:21:35.478Z,7.63
2022-10-22T23:24:07.546Z,5.72
2022-10-22T23:26:39.804Z,5.50
2022-10-22T23:29:19.169Z,6.97
2022-10-22T23:31:48.791Z,5.90
2022-10-22T23:36:47.476Z,6.50
2022-10-22T23:39:18.875Z,6.65
2022-10-22T23:41:47.214Z,8.00
2022-10-22T23:44:14.891Z,6.93
2022-10-22T23:46:42.932Z,6.28
2022-10-22T23:49:11.097Z,10.05
2022-10-22T23:51:39.633Z,6.30
2022-10-22T23:54:11.436Z,6.53
2022-10-22T23:56:39.308Z,6.93
2022-10-22T23:59:07.778Z,6.78
